Coopers Plains, New York
Current Conditions -  °F | °C
As of 12:30 AM on Thursday 27 Nov 2014 (Local Time) from KELM Reporting Station
Light Snow Light Snow  
Wind Chill: 25°   Ceiling: 1700
Heat Index: 31°   Visibility: 5mi
Dew Point: 26°   Wind: 6mph
Humidity: 82%   Direction: NA
Pressure: 29.97"   Gusts: NA
Location:  42.18°N, 77.14°W
Report Text: KELM 270530Z AUTO VRB05KT 5SM -SN BKN017 BKN036 OVC050 M01/M03 A2997 RMK AO2 P0000 T10061033
Loading
Personal Weather Stations






























Interactive Weather Map New forecast layout! Learn more

10-Day Weather Forecast

Advertisements
Track Severe Weather on mobile